Terminal Aerodrome Forecast
Issued by NWS

Home | Current Version | Previous Version | Text Only | Print | Product List | Glossary On
Versions: 1 2 3 4 5 6 7 8 9 10 11 12 13 14
236
FTUS44 KLZK 082320
TAFHOT
TAF
KHOT 082320Z 0900/0924 31012G22KT P6SM BKN080
     FM090500 30010G16KT P6SM SCT080
     FM091500 31014G24KT P6SM SKC=

USA.gov is the U.S. government's official web portal to all federal, state and local government web resources and services.